Terminal Aerodrome Forecast
Issued by NWS

Home | Current Version | Previous Version | Text Only | Print | Product List | Glossary On
Versions: 1 2 3 4 5 6 7 8 9 10 11 12 13 14 15 16 17 18 19
000
FTUS43 KGRB 302300
TAFCWA
TAF
KCWA 302333Z 3100/3124 22004KT P6SM SCT050 OVC080
     FM310600 21004KT P6SM SCT020 OVC050
      TEMPO 3108/3112 -SHSN BKN020
     FM311200 27004KT P6SM OVC020
     FM311600 33007KT P6SM BKN025 OVC070
      AMD LTD TO CLD VIS AND WIND 3103/3111=

USA.gov is the U.S. government's official web portal to all federal, state and local government web resources and services.